Time;durP1;ratioP1;P1;durP2;ratioP2;P2;SDS_P1;SDS_P2;PMS_P1;PMS_P2;Temp;Humidity;BMP_temperature;BMP_pressure;BME280_temperature;BME280_humidity;BME280_pressure;Samples;Min_cycle;Max_cycle;Signal;HPM_P1;HPM_P2
2022/05/18 00:02:08;;;;;;;7.22;1.90;;;;;;;25.24;42.67;101613.78;5051760;28;20051;-67
2022/05/18 00:04:33;;;;;;;3.83;1.33;;;;;;;25.18;42.75;101619.28;5056610;28;20031;-68
2022/05/18 00:06:58;;;;;;;3.03;2.22;;;;;;;25.13;43.26;101627.25;5056544;28;20024;-68
2022/05/18 00:09:24;;;;;;;2.30;2.10;;;;;;;25.09;43.39;101628.72;5056538;28;20071;-68
2022/05/18 00:11:49;;;;;;;4.65;1.90;;;;;;;25.09;42.78;101623.25;5056566;28;20063;-67
2022/05/18 00:14:15;;;;;;;2.88;2.25;;;;;;;25.05;43.27;101625.53;5056707;28;20104;-68
2022/05/18 00:16:40;;;;;;;4.80;2.08;;;;;;;25.04;43.36;101620.28;5056395;28;20037;-68
2022/05/18 00:19:05;;;;;;;7.78;1.38;;;;;;;25.02;43.65;101627.84;5056333;28;20506;-68
2022/05/18 00:21:32;;;;;;;3.70;2.30;;;;;;;24.99;43.01;101629.09;5056522;28;20060;-68
2022/05/18 00:23:58;;;;;;;3.88;1.95;;;;;;;24.96;42.99;101628.69;5056107;28;20023;-68
2022/05/18 00:26:24;;;;;;;4.03;2.30;;;;;;;24.94;43.69;101633.50;5056324;28;20029;-68
2022/05/18 00:28:50;;;;;;;4.47;2.17;;;;;;;24.89;42.89;101640.44;5056161;28;20036;-68
2022/05/18 00:31:17;;;;;;;4.22;1.83;;;;;;;24.83;43.07;101644.00;5055036;28;20387;-68
2022/05/18 00:33:42;;;;;;;2.38;1.75;;;;;;;24.77;43.82;101642.03;5056256;28;20364;-68
2022/05/18 00:36:08;;;;;;;5.13;2.05;;;;;;;24.72;43.39;101644.53;5056386;28;20085;-68
2022/05/18 00:38:33;;;;;;;5.53;1.75;;;;;;;24.67;43.45;101638.81;5056322;28;20085;-68
2022/05/18 00:40:58;;;;;;;4.78;2.00;;;;;;;24.64;43.49;101650.19;5056225;28;20024;-67
2022/05/18 00:43:30;;;;;;;5.22;1.65;;;;;;;24.63;43.71;101644.88;5054536;28;20105;-68
2022/05/18 00:45:56;;;;;;;2.92;1.95;;;;;;;24.61;43.48;101641.50;5055980;28;20367;-67
2022/05/18 00:48:22;;;;;;;2.95;2.10;;;;;;;24.59;43.71;101638.97;5055845;28;20470;-68
2022/05/18 00:50:47;;;;;;;5.07;2.15;;;;;;;24.56;44.08;101639.38;5055597;28;20017;-67
2022/05/18 00:53:19;;;;;;;6.30;2.55;;;;;;;24.54;43.82;101635.97;5038002;28;20025;-68
2022/05/18 00:55:50;;;;;;;2.22;1.63;;;;;;;24.50;43.50;101640.19;5054212;28;20494;-68
2022/05/18 00:58:33;;;;;;;4.50;2.10;;;;;;;24.47;44.44;101639.72;5055727;28;20041;-68
2022/05/18 01:00:59;;;;;;;2.20;2.00;;;;;;;24.44;44.33;101640.97;5055500;28;20027;-68
2022/05/18 01:03:28;;;;;;;3.22;2.35;;;;;;;24.43;44.05;101644.75;5055055;28;20021;-68
2022/05/18 01:06:05;;;;;;;3.55;2.42;;;;;;;24.41;44.45;101641.38;5055710;28;20095;-67
2022/05/18 01:08:39;;;;;;;4.00;2.20;;;;;;;24.39;43.75;101648.09;5055905;28;20551;-69
2022/05/18 01:11:05;;;;;;;3.63;1.70;;;;;;;24.34;43.62;101635.84;5055614;28;20025;-67
2022/05/18 01:13:30;;;;;;;3.85;1.92;;;;;;;24.31;43.43;101636.25;5055424;28;20024;-66
2022/05/18 01:15:56;;;;;;;5.18;2.17;;;;;;;24.26;44.49;101641.47;5055247;28;20104;-67
2022/05/18 01:18:22;;;;;;;1.85;1.73;;;;;;;24.22;43.66;101648.41;5055325;28;20406;-68
2022/05/18 01:20:48;;;;;;;3.60;1.90;;;;;;;24.16;44.54;101642.84;5054062;28;20021;-67
2022/05/18 01:23:38;;;;;;;1.52;1.42;;;;;;;24.11;43.65;101642.59;5055304;28;20032;-68
2022/05/18 01:26:19;;;;;;;4.88;1.80;;;;;;;24.06;43.93;101648.66;5055396;28;20033;-66
2022/05/18 01:28:53;;;;;;;2.25;1.95;;;;;;;24.02;43.68;101647.34;5055546;28;20502;-68
2022/05/18 01:31:39;;;;;;;4.10;2.25;;;;;;;24.00;43.88;101654.06;5054858;28;20463;-68
2022/05/18 01:34:04;;;;;;;4.55;2.35;;;;;;;23.97;43.91;101655.31;5054531;28;20103;-68
2022/05/18 01:36:29;;;;;;;8.00;2.20;;;;;;;23.96;44.73;101655.47;5054778;28;20028;-68
2022/05/18 01:38:55;;;;;;;4.57;1.90;;;;;;;23.96;44.20;101655.47;5054978;28;20112;-67
2022/05/18 01:41:21;;;;;;;4.13;2.60;;;;;;;23.94;44.25;101657.56;5055166;28;20064;-67
2022/05/18 01:43:50;;;;;;;4.32;2.53;;;;;;;23.89;44.11;101662.78;5055062;28;20025;-68
2022/05/18 01:46:18;;;;;;;5.18;2.60;;;;;;;23.82;44.98;101650.91;5053652;28;20028;-66
2022/05/18 01:48:49;;;;;;;2.15;1.90;;;;;;;23.77;44.27;101649.63;5054784;28;20024;-67
2022/05/18 01:51:34;;;;;;;4.28;2.40;;;;;;;23.73;44.01;101648.31;5053773;28;20028;-68
2022/05/18 01:54:00;;;;;;;3.67;2.42;;;;;;;23.68;44.32;101645.31;5053648;28;20035;-68
2022/05/18 01:56:25;;;;;;;6.72;2.63;;;;;;;23.65;44.24;101650.31;5053272;28;20045;-67
2022/05/18 01:58:51;;;;;;;4.90;2.53;;;;;;;23.61;45.03;101649.91;5054678;28;20112;-68
2022/05/18 02:01:16;;;;;;;5.35;3.38;;;;;;;23.59;44.83;101657.44;5054709;28;20020;-68
2022/05/18 02:03:42;;;;;;;3.70;2.22;;;;;;;23.58;44.23;101647.53;5054503;28;20029;-67
2022/05/18 02:06:07;;;;;;;5.05;2.40;;;;;;;23.56;44.35;101655.06;5054846;28;20031;-68
2022/05/18 02:08:33;;;;;;;5.55;2.47;;;;;;;23.55;45.07;101658.88;5054457;28;20451;-67
2022/05/18 02:10:58;;;;;;;6.32;2.40;;;;;;;23.54;44.24;101656.31;5054118;28;20025;-68
2022/05/18 02:13:24;;;;;;;3.67;2.53;;;;;;;23.53;44.35;101658.22;5054284;28;20053;-67
2022/05/18 02:15:49;;;;;;;4.38;2.28;;;;;;;23.51;44.33;101659.44;5053539;28;20032;-68
2022/05/18 02:18:15;;;;;;;5.88;2.35;;;;;;;23.49;45.22;101651.44;5054316;28;20032;-67
2022/05/18 02:20:40;;;;;;;3.90;2.58;;;;;;;23.46;44.39;101654.56;5036245;28;20024;-66
2022/05/18 02:23:07;;;;;;;6.30;2.92;;;;;;;23.43;44.69;101662.28;5054472;28;20486;-68
2022/05/18 02:25:32;;;;;;;4.00;2.13;;;;;;;23.40;44.74;101654.47;5054033;28;20025;-68
2022/05/18 02:27:58;;;;;;;3.63;2.60;;;;;;;23.36;45.32;101655.88;5054218;28;20390;-68
2022/05/18 02:30:23;;;;;;;3.88;2.47;;;;;;;23.32;44.53;101649.94;5053958;28;20040;-68
2022/05/18 02:32:49;;;;;;;3.15;2.22;;;;;;;23.31;45.49;101648.22;5053957;28;20572;-67
2022/05/18 02:35:14;;;;;;;4.97;2.20;;;;;;;23.29;44.45;101653.06;5053964;28;20079;-68
2022/05/18 02:37:40;;;;;;;4.75;2.28;;;;;;;23.29;45.27;101650.31;5053957;28;20107;-68
2022/05/18 02:40:09;;;;;;;4.35;2.63;;;;;;;23.29;45.67;101650.31;5054170;28;20029;-68
2022/05/18 02:42:35;;;;;;;6.60;2.35;;;;;;;23.29;45.61;101644.00;5053660;28;20025;-69
2022/05/18 02:45:00;;;;;;;2.58;2.22;;;;;;;23.29;45.19;101655.78;5053790;28;20540;-69
2022/05/18 02:47:26;;;;;;;5.00;2.10;;;;;;;23.26;44.82;101645.22;5053567;28;20459;-69
2022/05/18 02:49:51;;;;;;;2.33;2.13;;;;;;;23.26;44.57;101649.84;5053722;28;20028;-68
2022/05/18 02:52:17;;;;;;;5.03;2.47;;;;;;;23.23;44.63;101651.06;5053938;28;20040;-68
2022/05/18 02:57:26;;;;;;;4.07;2.47;;;;;;;23.21;45.62;101647.69;5053670;28;20052;-67
2022/05/18 02:59:52;;;;;;;3.45;2.40;;;;;;;23.17;45.17;101640.94;5053505;28;20100;-67
2022/05/18 03:02:17;;;;;;;3.83;2.53;;;;;;;23.16;45.73;101639.22;5053501;28;20017;-68
2022/05/18 03:04:42;;;;;;;5.75;2.15;;;;;;;23.15;45.92;101643.00;5051703;28;20466;-68
2022/05/18 03:07:08;;;;;;;4.13;3.22;;;;;;;23.12;45.94;101648.84;5033535;28;20114;-68
2022/05/18 03:09:33;;;;;;;5.90;2.72;;;;;;;23.12;45.36;101648.84;5033631;28;20022;-68
2022/05/18 03:11:59;;;;;;;4.75;2.70;;;;;;;23.12;45.92;101648.84;5033614;28;20025;-68
2022/05/18 03:14:24;;;;;;;3.92;2.35;;;;;;;23.10;45.07;101651.78;5033605;28;20031;-69
2022/05/18 03:16:50;;;;;;;5.97;2.47;;;;;;;23.10;45.18;101650.91;5033420;28;20056;-68
2022/05/18 03:19:16;;;;;;;5.82;2.90;;;;;;;23.09;45.26;101663.75;5033421;28;20026;-67
2022/05/18 03:24:25;;;;;;;4.25;2.35;;;;;;;23.08;46.02;101659.31;5053379;28;20492;-67
2022/05/18 03:26:51;;;;;;;11.63;3.05;;;;;;;23.06;45.61;101655.09;5054980;28;20017;-68
2022/05/18 03:29:18;;;;;;;4.85;2.92;;;;;;;23.05;45.71;101670.63;5057040;28;20386;-68
2022/05/18 03:31:44;;;;;;;6.50;3.50;;;;;;;23.02;45.31;101665.56;5057317;28;20102;-68
2022/05/18 03:34:10;;;;;;;7.82;2.85;;;;;;;23.02;46.06;101664.69;5057222;28;20021;-67
2022/05/18 03:36:35;;;;;;;5.15;2.25;;;;;;;23.00;45.73;101666.78;5056187;28;20021;-67
2022/05/18 03:39:01;;;;;;;4.28;2.63;;;;;;;22.97;45.03;101661.69;5057419;28;20047;-68
2022/05/18 03:41:27;;;;;;;3.60;2.80;;;;;;;22.94;45.99;101667.53;5057156;28;20107;-68
2022/05/18 03:43:52;;;;;;;2.97;2.55;;;;;;;22.90;45.12;101663.47;5056904;28;20129;-68
2022/05/18 03:46:18;;;;;;;5.47;2.60;;;;;;;22.89;45.39;101668.06;5056981;28;20032;-68
2022/05/18 03:48:44;;;;;;;4.93;2.90;;;;;;;22.88;45.10;101684.69;5055705;28;20020;-69
2022/05/18 03:51:12;;;;;;;3.92;2.65;;;;;;;22.90;46.31;101688.06;5056116;28;20037;-68
2022/05/18 03:53:37;;;;;;;6.47;2.83;;;;;;;22.92;45.40;101695.03;5057172;28;20029;-68
2022/05/18 03:56:03;;;;;;;4.13;2.65;;;;;;;22.95;45.35;101685.59;5056765;28;20413;-68
2022/05/18 03:58:29;;;;;;;8.13;2.83;;;;;;;22.92;45.98;101692.31;5056696;28;20021;-67
2022/05/18 04:00:55;;;;;;;6.10;2.50;;;;;;;22.91;45.94;101701.56;5055944;28;20025;-68
2022/05/18 04:03:24;;;;;;;4.22;2.97;;;;;;;22.90;45.82;101704.47;5056437;28;20025;-69
2022/05/18 04:05:51;;;;;;;11.18;2.78;;;;;;;22.90;45.81;101705.31;5056693;28;20056;-68
2022/05/18 04:08:16;;;;;;;2.80;2.42;;;;;;;22.90;45.21;101707.19;5056676;28;20028;-68
2022/05/18 04:10:43;;;;;;;4.03;2.72;;;;;;;22.92;45.23;101713.34;5056533;28;20151;-69
2022/05/18 04:13:17;;;;;;;4.88;2.85;;;;;;;22.94;45.21;101719.47;5056687;28;20127;-68
2022/05/18 04:15:42;;;;;;;4.03;2.60;;;;;;;22.97;45.33;101719.09;5056437;28;20032;-68
2022/05/18 04:18:08;;;;;;;5.63;2.85;;;;;;;23.00;45.93;101721.44;5056645;28;20021;-67
2022/05/18 04:20:34;;;;;;;4.82;3.03;;;;;;;23.05;45.42;101722.56;5056213;28;20475;-68
2022/05/18 04:22:59;;;;;;;9.23;2.60;;;;;;;23.11;45.70;101723.69;5056655;28;20025;-68
2022/05/18 04:25:27;;;;;;;5.28;2.60;;;;;;;23.16;46.50;101732.19;5056388;28;20441;-68
2022/05/18 04:27:53;;;;;;;4.78;2.72;;;;;;;23.19;45.42;101729.06;5056220;28;20036;-68
2022/05/18 04:30:22;;;;;;;6.07;3.17;;;;;;;23.26;45.63;101731.88;5056274;28;20017;-68
2022/05/18 04:32:47;;;;;;;3.97;3.03;;;;;;;23.31;45.71;101738.47;5054826;28;20032;-67
2022/05/18 04:35:16;;;;;;;8.07;2.88;;;;;;;23.41;45.49;101747.28;5055958;28;20025;-68
2022/05/18 04:38:00;;;;;;;5.38;2.50;;;;;;;23.51;45.55;101741.50;5055404;28;20035;-68
2022/05/18 04:40:25;;;;;;;3.25;2.80;;;;;;;23.62;45.35;101755.53;5055835;28;20056;-68
2022/05/18 04:42:51;;;;;;;5.85;2.75;;;;;;;23.73;45.58;101746.81;5055962;28;20044;-68
2022/05/18 04:45:20;;;;;;;8.18;3.45;;;;;;;23.84;45.70;101745.50;5056304;28;20013;-68
2022/05/18 04:47:45;;;;;;;7.50;3.72;;;;;;;23.99;46.29;101742.69;5054527;28;20025;-68
2022/05/18 04:50:11;;;;;;;4.97;2.90;;;;;;;24.07;45.92;101746.16;5055743;28;20035;-69
2022/05/18 04:52:36;;;;;;;7.97;3.25;;;;;;;24.19;45.70;101743.78;5055956;28;20433;-68
2022/05/18 04:55:03;;;;;;;6.38;3.42;;;;;;;24.32;45.21;101741.16;5055684;28;20112;-68
2022/05/18 04:57:28;;;;;;;5.35;3.67;;;;;;;24.42;45.70;101741.69;5055487;28;20020;-69
2022/05/18 04:59:54;;;;;;;4.95;3.72;;;;;;;24.54;45.49;101758.44;5054468;28;20079;-67
2022/05/18 05:02:19;;;;;;;6.03;3.53;;;;;;;24.67;45.55;101758.53;5055485;28;20033;-68
2022/05/18 05:04:45;;;;;;;7.60;3.63;;;;;;;24.82;44.96;101756.56;5055427;28;20032;-68
2022/05/18 05:07:11;;;;;;;4.00;3.42;;;;;;;24.96;45.50;101763.84;5055810;28;20405;-68
2022/05/18 05:09:37;;;;;;;6.97;3.20;;;;;;;25.11;44.82;101763.72;5055623;28;20021;-68
2022/05/18 05:12:03;;;;;;;9.27;3.97;;;;;;;25.27;45.21;101769.75;5037784;28;20387;-68
2022/05/18 05:14:28;;;;;;;11.25;4.35;;;;;;;25.43;44.61;101774.06;5035317;28;20033;-68
2022/05/18 05:16:56;;;;;;;11.27;4.40;;;;;;;25.60;44.75;101780.91;5035404;28;20498;-68
2022/05/18 05:19:22;;;;;;;8.88;3.97;;;;;;;25.76;44.28;101775.09;5035249;28;20439;-68
2022/05/18 05:21:47;;;;;;;7.45;4.00;;;;;;;25.93;44.29;101779.16;5034027;28;20087;-69
2022/05/18 05:24:14;;;;;;;7.45;3.78;;;;;;;26.12;44.30;101782.16;5034898;28;20018;-68
2022/05/18 05:26:40;;;;;;;7.55;3.85;;;;;;;26.28;44.13;101776.28;5035127;28;20395;-68
2022/05/18 05:29:06;;;;;;;10.18;3.55;;;;;;;26.45;43.67;101774.84;5037804;28;20430;-68
2022/05/18 05:31:32;;;;;;;8.98;3.72;;;;;;;26.62;43.85;101765.13;5047080;28;20133;-69
2022/05/18 05:33:57;;;;;;;7.50;4.35;;;;;;;26.78;43.50;101767.47;5038318;28;20495;-69
2022/05/18 05:36:23;;;;;;;5.88;3.55;;;;;;;26.93;43.23;101773.63;5046570;28;20051;-68
2022/05/18 05:38:49;;;;;;;5.78;3.80;;;;;;;27.13;42.74;101782.69;5045019;28;20037;-68
2022/05/18 05:41:15;;;;;;;8.25;3.65;;;;;;;27.34;42.62;101780.72;5045655;28;20032;-69
2022/05/18 05:43:41;;;;;;;5.68;3.35;;;;;;;27.56;42.91;101782.16;5038814;28;20406;-68
2022/05/18 05:46:10;;;;;;;4.43;3.38;;;;;;;27.82;41.79;101789.47;5042001;28;20032;-68
2022/05/18 05:48:36;;;;;;;6.43;3.63;;;;;;;28.07;42.32;101783.00;5045216;28;20039;-68
2022/05/18 05:51:03;;;;;;;5.95;3.30;;;;;;;28.30;41.98;101780.53;5036018;28;20017;-68
2022/05/18 05:53:29;;;;;;;4.25;3.00;;;;;;;28.56;41.57;101781.41;5060123;28;20033;-67
2022/05/18 05:55:55;;;;;;;3.22;2.60;;;;;;;28.73;40.51;101788.91;5040548;28;20037;-68
2022/05/18 05:58:21;;;;;;;5.50;2.95;;;;;;;28.68;41.55;101785.13;5042551;28;20036;-68
2022/05/18 06:00:46;;;;;;;3.10;2.50;;;;;;;28.73;40.36;101782.53;5042347;28;20429;-68
2022/05/18 06:03:13;;;;;;;4.75;2.33;;;;;;;28.84;40.02;101776.28;5044539;28;20031;-68
2022/05/18 06:05:39;;;;;;;8.32;2.33;;;;;;;28.80;40.16;101783.34;5040346;28;20479;-68
2022/05/18 06:08:04;;;;;;;4.03;2.63;;;;;;;28.81;40.15;101779.53;5044950;28;20045;-68
2022/05/18 06:10:29;;;;;;;3.58;2.42;;;;;;;28.91;40.68;101779.84;5046940;28;20059;-68
2022/05/18 06:12:55;;;;;;;2.30;2.10;;;;;;;29.13;39.12;101783.88;5049993;28;20047;-68
2022/05/18 06:15:20;;;;;;;4.72;2.97;;;;;;;29.33;39.83;101779.03;5042362;28;20020;-68
2022/05/18 06:17:45;;;;;;;2.20;1.92;;;;;;;29.53;39.19;101773.28;5044563;28;20443;-68
2022/05/18 06:20:11;;;;;;;4.55;1.98;;;;;;;29.70;39.12;101768.81;5040272;28;20029;-68
2022/05/18 06:22:36;;;;;;;4.28;2.40;;;;;;;29.84;38.40;101770.34;5041102;28;20024;-67
2022/05/18 06:25:03;;;;;;;3.63;2.53;;;;;;;30.00;38.01;101768.84;5039183;28;20021;-68
2022/05/18 06:27:28;;;;;;;2.83;2.17;;;;;;;30.19;37.83;101784.28;5041310;28;20135;-68
2022/05/18 06:29:53;;;;;;;7.35;2.50;;;;;;;30.37;37.64;101775.97;5043380;28;20546;-68
2022/05/18 06:32:19;;;;;;;7.43;2.58;;;;;;;30.63;37.76;101771.09;5038952;28;20107;-68
2022/05/18 06:34:45;;;;;;;2.53;1.80;;;;;;;30.78;37.44;101777.00;5044601;28;20079;-68
2022/05/18 06:37:11;;;;;;;9.25;3.30;;;;;;;30.82;37.67;101780.97;5039975;28;20042;-68
2022/05/18 06:39:37;;;;;;;4.13;1.92;;;;;;;30.79;37.14;101779.53;5041028;28;20029;-68
2022/05/18 06:42:02;;;;;;;5.45;1.88;;;;;;;30.73;36.89;101783.25;5036123;28;20512;-67
2022/05/18 06:44:28;;;;;;;3.25;1.80;;;;;;;30.85;36.59;101786.84;5043540;28;20013;-68
2022/05/18 06:46:57;;;;;;;4.22;2.10;;;;;;;30.86;36.82;101780.25;5045047;28;20029;-67
2022/05/18 06:49:23;;;;;;;3.05;2.05;;;;;;;30.79;37.07;101778.69;5037452;28;20429;-67
2022/05/18 06:51:48;;;;;;;5.07;2.00;;;;;;;30.73;36.16;101785.19;5042206;28;20056;-68
2022/05/18 06:54:14;;;;;;;8.02;2.88;;;;;;;30.62;36.73;101789.63;5039307;28;20060;-68
2022/05/18 06:56:42;;;;;;;7.95;2.13;;;;;;;30.75;36.54;101794.06;5041348;28;20065;-68
2022/05/18 06:59:09;;;;;;;4.38;2.05;;;;;;;30.86;36.46;101796.00;5048875;28;20031;-67
2022/05/18 07:01:35;;;;;;;3.17;1.52;;;;;;;31.06;35.98;101793.78;5040511;28;20147;-68
2022/05/18 07:04:01;;;;;;;11.20;2.20;;;;;;;31.03;36.06;101797.03;5044527;28;20424;-68
2022/05/18 07:06:29;;;;;;;3.17;1.90;;;;;;;31.17;36.09;101803.16;5042099;28;20479;-68
2022/05/18 07:08:57;;;;;;;4.70;2.28;;;;;;;31.15;35.96;101806.19;5041330;28;20020;-68
2022/05/18 07:11:23;;;;;;;11.45;2.03;;;;;;;31.13;35.88;101800.00;5042916;28;20393;-69
2022/05/18 07:13:51;;;;;;;5.47;2.05;;;;;;;31.18;35.75;101800.16;5041302;28;20017;-68
2022/05/18 07:16:26;;;;;;;4.55;1.92;;;;;;;31.20;35.63;101806.28;5047929;28;20025;-68
2022/05/18 07:18:51;;;;;;;7.63;2.28;;;;;;;31.21;35.60;101798.81;5038510;28;20037;-68
2022/05/18 07:21:17;;;;;;;11.00;3.67;;;;;;;31.26;35.50;101802.56;5040437;28;20021;-67
2022/05/18 07:23:42;;;;;;;6.65;2.08;;;;;;;31.66;34.67;101792.38;5038463;28;20021;-68
2022/05/18 07:26:08;;;;;;;3.95;2.08;;;;;;;32.06;34.41;101802.66;5040479;28;20095;-68
2022/05/18 07:28:33;;;;;;;2.67;1.98;;;;;;;32.39;34.43;101796.31;5040662;28;20508;-68
2022/05/18 07:30:59;;;;;;;3.85;2.25;;;;;;;32.90;33.45;101806.41;5042132;28;20021;-68
2022/05/18 07:33:25;;;;;;;3.85;2.47;;;;;;;33.14;34.25;101805.97;5040790;28;20060;-68
2022/05/18 07:35:53;;;;;;;3.50;1.73;;;;;;;33.54;33.82;101800.16;5039284;28;20021;-68
2022/05/18 07:38:21;;;;;;;2.80;1.77;;;;;;;33.77;32.81;101804.66;5046249;28;20107;-67
2022/05/18 07:40:48;;;;;;;9.63;2.40;;;;;;;33.69;33.96;101797.63;5040591;28;20018;-68
2022/05/18 07:43:13;;;;;;;3.35;1.90;;;;;;;33.67;34.18;101805.38;5043207;28;20028;-68
2022/05/18 07:45:38;;;;;;;9.70;2.22;;;;;;;33.61;32.85;101800.88;5049249;28;20029;-68
2022/05/18 07:48:04;;;;;;;7.25;2.33;;;;;;;33.57;33.75;101805.25;5038863;28;20367;-67
2022/05/18 07:50:29;;;;;;;3.95;1.88;;;;;;;33.52;32.99;101802.38;5041471;28;20103;-68
2022/05/18 07:52:58;;;;;;;6.10;2.05;;;;;;;33.45;33.88;101804.47;5038599;28;20029;-68
2022/05/18 07:55:24;;;;;;;3.10;1.00;;;;;;;33.36;33.02;101808.81;5044745;28;20041;-68
2022/05/18 07:57:50;;;;;;;1.10;1.02;;;;;;;33.38;33.72;101813.03;5044531;28;20033;-68
2022/05/18 08:00:18;;;;;;;2.00;1.27;;;;;;;33.69;32.19;101803.19;5041913;28;20395;-68
2022/05/18 08:02:43;;;;;;;8.55;1.50;;;;;;;34.15;31.87;101817.66;5043075;28;20036;-68
2022/05/18 08:05:09;;;;;;;3.00;1.50;;;;;;;34.57;31.81;101815.00;5046701;28;20498;-68
2022/05/18 08:07:34;;;;;;;2.85;1.60;;;;;;;34.93;30.75;101820.66;5048541;28;20021;-67
2022/05/18 08:15:29;;;;;;;2.55;1.13;;;;;;;36.12;30.23;101820.84;5048409;28;20395;-69
2022/05/18 08:17:55;;;;;;;1.85;1.30;;;;;;;36.30;29.38;101822.25;5046625;28;20014;-68
2022/05/18 08:20:21;;;;;;;4.25;1.15;;;;;;;35.99;30.20;101829.66;5051780;28;20041;-68
2022/05/18 08:22:47;;;;;;;4.10;1.30;;;;;;;35.76;29.68;101823.72;5047820;28;21430;-68
2022/05/18 08:25:14;;;;;;;4.38;1.30;;;;;;;36.03;28.76;101819.69;5041541;28;20045;-68
2022/05/18 08:27:45;;;;;;;1.98;1.50;;;;;;;36.36;28.70;101817.50;5049949;28;20025;-68
2022/05/18 08:30:13;;;;;;;2.42;1.40;;;;;;;36.61;28.53;101823.16;5043019;28;20475;-67
2022/05/18 08:32:38;;;;;;;1.42;0.93;;;;;;;36.87;28.50;101829.59;5046899;28;20067;-68
2022/05/18 08:35:05;;;;;;;1.45;1.20;;;;;;;37.10;27.84;101824.31;5046589;28;20028;-68
2022/05/18 08:37:40;;;;;;;1.77;1.35;;;;;;;37.31;27.97;101825.09;5044198;28;20060;-68
2022/05/18 08:40:07;;;;;;;3.65;1.30;;;;;;;37.34;27.80;101813.34;5046353;28;20016;-68
2022/05/18 08:42:34;;;;;;;9.50;1.60;;;;;;;37.00;28.21;101824.31;5040920;28;20063;-68
2022/05/18 08:45:00;;;;;;;3.45;1.50;;;;;;;36.84;27.96;101833.78;5040362;28;20438;-69
2022/05/18 08:47:38;;;;;;;3.50;1.38;;;;;;;36.88;28.11;101829.28;5039932;28;20069;-69
2022/05/18 08:50:07;;;;;;;6.63;1.15;;;;;;;37.24;27.36;101828.16;5043304;28;21772;-68
2022/05/18 08:52:59;;;;;;;2.58;1.60;;;;;;;37.53;27.01;101822.81;5047571;28;20040;-68
2022/05/18 08:56:03;;;;;;;3.53;1.33;;;;;;;37.82;27.30;101821.03;5041731;28;20060;-68
2022/05/18 08:58:29;;;;;;;1.23;0.70;;;;;;;38.04;26.80;101812.28;5042363;28;20033;-68
2022/05/18 09:01:00;;;;;;;2.40;1.10;;;;;;;38.21;26.73;101809.94;5047849;28;20021;-69
2022/05/18 09:03:34;;;;;;;3.22;1.42;;;;;;;38.39;25.97;101814.88;5041918;28;20426;-68
2022/05/18 09:06:30;;;;;;;1.40;1.20;;;;;;;38.60;26.12;101817.53;5044448;28;20024;-68
2022/05/18 09:11:49;;;;;;;3.97;1.05;;;;;;;38.80;26.78;101807.00;5036331;28;20060;-68
2022/05/18 09:14:17;;;;;;;3.63;0.90;;;;;;;38.93;25.92;101808.28;5041077;28;20498;-68
2022/05/18 09:17:07;;;;;;;1.27;1.10;;;;;;;39.03;25.89;101808.22;5044288;28;20017;-68
2022/05/18 09:20:05;;;;;;;2.65;1.33;;;;;;;39.16;25.44;101804.69;5044039;28;20040;-69
2022/05/18 09:22:37;;;;;;;0.98;0.73;;;;;;;39.22;25.19;101811.97;5044337;28;20039;-69
2022/05/18 09:25:37;;;;;;;2.42;0.80;;;;;;;39.30;25.08;101808.50;5035998;28;20505;-68
2022/05/18 09:28:08;;;;;;;2.35;1.20;;;;;;;39.43;24.73;101806.94;5040665;28;20104;-68
2022/05/18 09:30:39;;;;;;;7.10;1.20;;;;;;;39.54;25.19;101805.69;5039523;28;20017;-68
2022/05/18 09:33:40;;;;;;;3.63;1.42;;;;;;;39.78;24.53;101808.50;5042430;28;20521;-68
2022/05/18 09:36:33;;;;;;;5.18;1.30;;;;;;;39.93;24.94;101811.09;5032977;28;20398;-68
2022/05/18 09:39:05;;;;;;;3.60;0.90;;;;;;;40.06;23.91;101799.97;5040129;28;20072;-69
2022/05/18 09:41:34;;;;;;;1.30;1.10;;;;;;;40.18;24.38;101801.53;5045483;28;20029;-68
2022/05/18 09:44:23;;;;;;;2.13;1.27;;;;;;;40.38;23.93;101801.19;5042248;28;20025;-69
2022/05/18 09:46:49;;;;;;;2.20;1.10;;;;;;;40.55;24.16;101802.34;5038746;28;20032;-68
2022/05/18 09:49:39;;;;;;;3.10;1.45;;;;;;;40.73;24.01;101803.47;5039899;28;20021;-68
2022/05/18 09:52:05;;;;;;;4.05;1.25;;;;;;;40.88;23.72;101793.91;5043389;28;20403;-68
2022/05/18 09:54:32;;;;;;;4.85;1.35;;;;;;;41.15;23.29;101799.63;5042393;28;20104;-68
2022/05/18 09:57:18;;;;;;;4.20;1.90;;;;;;;41.66;23.45;101793.81;5042570;28;20107;-68
2022/05/18 09:59:57;;;;;;;6.97;6.35;;;;;;;42.13;23.00;101784.06;5036159;28;20029;-69
2022/05/18 10:07:58;;;;;;;1.45;1.30;;;;;;;44.66;21.32;101789.81;5039117;28;20764;-68
2022/05/18 10:10:31;;;;;;;3.00;1.75;;;;;;;44.57;20.97;101789.00;5039360;28;20021;-68
2022/05/18 10:13:10;;;;;;;3.55;1.02;;;;;;;44.10;21.23;101787.13;5062564;28;20021;-69
2022/05/18 10:15:39;;;;;;;1.88;1.63;;;;;;;43.77;21.81;101787.59;5047690;28;20028;-68
2022/05/18 10:18:34;;;;;;;4.43;1.42;;;;;;;43.64;21.81;101787.72;5046612;28;20394;-68
2022/05/18 10:21:09;;;;;;;11.07;1.77;;;;;;;43.64;21.85;101799.81;5040090;28;20423;-68
2022/05/18 10:23:39;;;;;;;3.10;1.23;;;;;;;43.65;21.81;101778.06;5041755;28;20028;-69
2022/05/18 10:26:09;;;;;;;3.65;1.45;;;;;;;43.64;21.57;101777.22;5043041;28;20367;-69
2022/05/18 10:28:40;;;;;;;1.70;1.38;;;;;;;43.66;21.85;101783.38;5040783;28;20029;-70
2022/05/18 10:31:07;;;;;;;6.20;1.60;;;;;;;43.66;21.71;101780.56;5044602;28;20347;-68
2022/05/18 10:33:39;;;;;;;2.20;2.00;;;;;;;43.74;21.42;101770.47;5040800;28;20087;-68
2022/05/18 10:36:11;;;;;;;2.15;1.52;;;;;;;43.82;21.61;101773.31;5040209;28;20032;-69
2022/05/18 10:38:38;;;;;;;2.92;1.67;;;;;;;43.96;21.43;101768.34;5045610;28;20033;-69
2022/05/18 10:41:03;;;;;;;4.25;1.50;;;;;;;44.16;21.50;101768.88;5043546;28;20020;-68
2022/05/18 10:44:14;;;;;;;2.40;1.67;;;;;;;44.38;21.35;101769.53;5039870;28;20360;-68
2022/05/18 10:46:45;;;;;;;3.78;1.77;;;;;;;44.56;20.95;101759.06;4997359;28;20852;-68
2022/05/18 10:49:32;;;;;;;6.75;2.80;;;;;;;44.74;21.25;101755.00;4993252;28;20081;-69
2022/05/18 10:52:26;;;;;;;3.92;2.80;;;;;;;44.92;21.24;101762.31;5030036;28;20503;-68
2022/05/18 10:55:02;;;;;;;4.45;2.08;;;;;;;45.15;21.21;101760.88;5045246;28;20021;-68
2022/05/18 10:57:35;;;;;;;4.53;2.05;;;;;;;45.35;20.97;101758.47;5038428;28;20094;-69
2022/05/18 11:00:01;;;;;;;3.58;2.25;;;;;;;45.50;20.68;101752.25;5036473;28;20128;-70
2022/05/18 11:02:33;;;;;;;3.03;2.08;;;;;;;45.64;20.79;101738.66;5041206;28;20112;-68
2022/05/18 11:05:08;;;;;;;2.83;2.00;;;;;;;45.75;20.28;101745.59;5063633;28;20045;-68
2022/05/18 11:07:33;;;;;;;5.05;2.58;;;;;;;45.78;20.31;101744.91;5044005;28;20029;-68
2022/05/18 11:09:59;;;;;;;4.22;1.80;;;;;;;45.93;20.59;101744.28;5043353;28;20078;-68
2022/05/18 11:12:48;;;;;;;5.32;2.28;;;;;;;46.05;20.13;101750.06;5037247;28;20035;-68
2022/05/18 11:15:29;;;;;;;4.43;1.50;;;;;;;46.08;20.17;101745.69;5035873;28;20032;-69
2022/05/18 11:18:04;;;;;;;3.85;1.40;;;;;;;46.22;19.80;101749.06;5043715;28;20589;-69
2022/05/18 11:20:35;;;;;;;3.35;2.10;;;;;;;46.34;19.79;101740.63;5036061;28;20024;-69
2022/05/18 11:23:12;;;;;;;1.90;1.60;;;;;;;46.48;19.53;101740.34;5040286;28;20156;-69
2022/05/18 11:25:58;;;;;;;4.05;1.95;;;;;;;46.61;19.46;101744.88;5040493;28;20060;-70
2022/05/18 11:28:57;;;;;;;3.40;1.85;;;;;;;46.64;19.64;101738.50;5035353;28;20021;-68
2022/05/18 11:31:58;;;;;;;2.40;1.73;;;;;;;46.69;19.32;101739.09;5038354;28;20021;-68
2022/05/18 11:34:38;;;;;;;3.25;1.25;;;;;;;46.82;19.10;101733.50;5034599;28;20029;-68
2022/05/18 11:37:48;;;;;;;1.48;1.38;;;;;;;46.94;19.52;101722.97;5041455;28;20036;-68
2022/05/18 11:40:24;;;;;;;6.57;1.25;;;;;;;47.01;19.00;101726.06;5037027;28;20517;-68
2022/05/18 11:43:25;;;;;;;2.22;1.25;;;;;;;47.11;19.36;101725.56;5039063;28;20033;-68
2022/05/18 11:45:57;;;;;;;3.13;1.30;;;;;;;47.14;18.99;101727.75;5040434;28;20026;-69
2022/05/18 11:48:49;;;;;;;1.55;1.45;;;;;;;46.91;19.12;101723.66;5041594;28;20139;-68
2022/05/18 11:51:30;;;;;;;2.72;1.50;;;;;;;46.18;19.58;101717.75;5044723;28;20487;-68
2022/05/18 11:53:58;;;;;;;3.47;1.40;;;;;;;45.42;19.90;101721.97;5040598;28;20510;-68
2022/05/18 11:56:47;;;;;;;2.72;1.00;;;;;;;44.75;20.17;101717.09;5045017;28;20045;-68